sensor_id;sensor_type;location;lat;lon;timestamp;temperature;humidity
2967;DHT22;1493;51.496;7.210;2023-02-28T00:01:08;1.00;99.90
2967;DHT22;1493;51.496;7.210;2023-02-28T00:03:35;1.00;99.90
2967;DHT22;1493;51.496;7.210;2023-02-28T00:06:02;1.00;93.10
2967;DHT22;1493;51.496;7.210;2023-02-28T00:08:30;1.10;99.90
2967;DHT22;1493;51.496;7.210;2023-02-28T00:11:01;1.10;66.40
2967;DHT22;1493;51.496;7.210;2023-02-28T00:13:27;1.00;52.30
2967;DHT22;1493;51.496;7.210;2023-02-28T00:16:01;1.00;45.70
2967;DHT22;1493;51.496;7.210;2023-02-28T00:18:28;1.00;50.50
2967;DHT22;1493;51.496;7.210;2023-02-28T00:20:55;1.00;38.70
2967;DHT22;1493;51.496;7.210;2023-02-28T00:23:21;0.90;38.60
2967;DHT22;1493;51.496;7.210;2023-02-28T00:25:49;1.00;42.10
2967;DHT22;1493;51.496;7.210;2023-02-28T00:28:18;1.00;34.00
2967;DHT22;1493;51.496;7.210;2023-02-28T00:30:45;0.90;43.70
2967;DHT22;1493;51.496;7.210;2023-02-28T00:33:12;0.90;51.30
2967;DHT22;1493;51.496;7.210;2023-02-28T00:35:39;0.90;49.40
2967;DHT22;1493;51.496;7.210;2023-02-28T00:38:06;0.90;35.70
2967;DHT22;1493;51.496;7.210;2023-02-28T00:40:32;0.80;43.20
2967;DHT22;1493;51.496;7.210;2023-02-28T00:42:59;0.90;53.90
2967;DHT22;1493;51.496;7.210;2023-02-28T00:45:27;0.80;54.40
2967;DHT22;1493;51.496;7.210;2023-02-28T00:47:54;0.80;52.30
2967;DHT22;1493;51.496;7.210;2023-02-28T00:50:21;0.70;56.50
2967;DHT22;1493;51.496;7.210;2023-02-28T00:52:48;0.70;71.50
2967;DHT22;1493;51.496;7.210;2023-02-28T00:55:15;0.70;74.80
2967;DHT22;1493;51.496;7.210;2023-02-28T00:57:42;0.70;84.40
2967;DHT22;1493;51.496;7.210;2023-02-28T01:00:10;0.60;99.90
2967;DHT22;1493;51.496;7.210;2023-02-28T01:02:38;0.60;99.90
2967;DHT22;1493;51.496;7.210;2023-02-28T01:05:05;0.60;99.90
2967;DHT22;1493;51.496;7.210;2023-02-28T01:07:32;0.50;99.90
2967;DHT22;1493;51.496;7.210;2023-02-28T01:09:59;0.50;99.90
2967;DHT22;1493;51.496;7.210;2023-02-28T01:12:26;0.50;99.90
2967;DHT22;1493;51.496;7.210;2023-02-28T01:14:53;0.40;99.90
2967;DHT22;1493;51.496;7.210;2023-02-28T01:17:20;0.40;99.90
2967;DHT22;1493;51.496;7.210;2023-02-28T01:19:48;0.40;99.90
2967;DHT22;1493;51.496;7.210;2023-02-28T01:22:14;0.40;99.90
2967;DHT22;1493;51.496;7.210;2023-02-28T01:24:41;0.40;99.90
2967;DHT22;1493;51.496;7.210;2023-02-28T01:27:08;0.30;99.90
2967;DHT22;1493;51.496;7.210;2023-02-28T01:29:35;0.30;99.90
2967;DHT22;1493;51.496;7.210;2023-02-28T01:32:02;0.20;99.90
2967;DHT22;1493;51.496;7.210;2023-02-28T01:34:28;0.20;99.90
2967;DHT22;1493;51.496;7.210;2023-02-28T01:36:56;0.20;99.90
2967;DHT22;1493;51.496;7.210;2023-02-28T01:39:24;0.20;99.90
2967;DHT22;1493;51.496;7.210;2023-02-28T01:41:51;0.10;99.90
2967;DHT22;1493;51.496;7.210;2023-02-28T01:47:22;0.10;99.90
2967;DHT22;1493;51.496;7.210;2023-02-28T01:49:50;0.00;1.00
2967;DHT22;1493;51.496;7.210;2023-02-28T01:52:19;0.00;1.00
2967;DHT22;1493;51.496;7.210;2023-02-28T01:54:51;-0.10;1.00
2967;DHT22;1493;51.496;7.210;2023-02-28T01:57:20;0.00;1.00
2967;DHT22;1493;51.496;7.210;2023-02-28T01:59:51;-0.10;1.00
2967;DHT22;1493;51.496;7.210;2023-02-28T02:02:22;-0.10;89.40
2967;DHT22;1493;51.496;7.210;2023-02-28T02:04:53;-0.20;99.90
2967;DHT22;1493;51.496;7.210;2023-02-28T02:07:23;-0.20;99.90
2967;DHT22;1493;51.496;7.210;2023-02-28T02:09:59;-0.20;99.90
2967;DHT22;1493;51.496;7.210;2023-02-28T02:12:36;-0.30;99.90
2967;DHT22;1493;51.496;7.210;2023-02-28T02:15:12;-0.30;99.90
2967;DHT22;1493;51.496;7.210;2023-02-28T02:17:45;-0.40;1.00
2967;DHT22;1493;51.496;7.210;2023-02-28T02:20:29;-0.40;1.00
2967;DHT22;1493;51.496;7.210;2023-02-28T02:23:23;-0.40;99.90
2967;DHT22;1493;51.496;7.210;2023-02-28T02:25:54;-0.40;1.00
2967;DHT22;1493;51.496;7.210;2023-02-28T02:31:45;-0.50;99.90
2967;DHT22;1493;51.496;7.210;2023-02-28T02:37:16;-0.60;1.00
2967;DHT22;1493;51.496;7.210;2023-02-28T02:39:48;-0.70;99.90
2967;DHT22;1493;51.496;7.210;2023-02-28T02:42:21;-0.70;33.00
2967;DHT22;1493;51.496;7.210;2023-02-28T02:44:55;-0.70;99.90
2967;DHT22;1493;51.496;7.210;2023-02-28T02:47:25;-0.80;1.00
2967;DHT22;1493;51.496;7.210;2023-02-28T02:49:57;-0.80;1.00
2967;DHT22;1493;51.496;7.210;2023-02-28T02:52:31;-0.80;1.00
2967;DHT22;1493;51.496;7.210;2023-02-28T02:55:00;-0.80;37.80
2967;DHT22;1493;51.496;7.210;2023-02-28T02:57:32;-0.80;38.10
2967;DHT22;1493;51.496;7.210;2023-02-28T03:00:02;-0.80;99.90
2967;DHT22;1493;51.496;7.210;2023-02-28T03:02:31;-0.90;99.90
2967;DHT22;1493;51.496;7.210;2023-02-28T03:05:03;-0.90;99.90
2967;DHT22;1493;51.496;7.210;2023-02-28T03:07:31;-0.90;1.00
2967;DHT22;1493;51.496;7.210;2023-02-28T03:09:58;-0.90;1.00
2967;DHT22;1493;51.496;7.210;2023-02-28T03:12:33;-0.90;99.90
2967;DHT22;1493;51.496;7.210;2023-02-28T03:15:13;-0.90;99.90
2967;DHT22;1493;51.496;7.210;2023-02-28T03:17:59;-0.90;56.70
2967;DHT22;1493;51.496;7.210;2023-02-28T03:20:37;-0.90;99.90
2967;DHT22;1493;51.496;7.210;2023-02-28T03:23:13;-0.90;99.90
2967;DHT22;1493;51.496;7.210;2023-02-28T03:25:51;-0.90;99.90
2967;DHT22;1493;51.496;7.210;2023-02-28T03:28:24;-0.80;1.00
2967;DHT22;1493;51.496;7.210;2023-02-28T03:30:59;-0.80;99.90
2967;DHT22;1493;51.496;7.210;2023-02-28T03:33:31;-0.80;99.90
2967;DHT22;1493;51.496;7.210;2023-02-28T03:36:04;-0.80;99.90
2967;DHT22;1493;51.496;7.210;2023-02-28T03:38:35;-0.80;1.00
2967;DHT22;1493;51.496;7.210;2023-02-28T03:41:06;-0.70;99.90
2967;DHT22;1493;51.496;7.210;2023-02-28T03:43:36;-0.70;99.90
2967;DHT22;1493;51.496;7.210;2023-02-28T03:46:09;-0.70;99.90
2967;DHT22;1493;51.496;7.210;2023-02-28T03:48:39;-0.70;1.00
2967;DHT22;1493;51.496;7.210;2023-02-28T03:51:09;-0.80;1.00
2967;DHT22;1493;51.496;7.210;2023-02-28T03:53:39;-0.80;99.90
2967;DHT22;1493;51.496;7.210;2023-02-28T03:56:12;-0.70;99.90
2967;DHT22;1493;51.496;7.210;2023-02-28T03:58:44;-0.70;99.90
2967;DHT22;1493;51.496;7.210;2023-02-28T04:01:16;-0.70;99.90
2967;DHT22;1493;51.496;7.210;2023-02-28T04:03:46;-0.80;99.90
2967;DHT22;1493;51.496;7.210;2023-02-28T04:06:16;-0.80;99.90
2967;DHT22;1493;51.496;7.210;2023-02-28T04:08:44;-0.80;99.90
2967;DHT22;1493;51.496;7.210;2023-02-28T04:11:19;-0.80;99.90
2967;DHT22;1493;51.496;7.210;2023-02-28T04:13:46;-0.80;99.70
2967;DHT22;1493;51.496;7.210;2023-02-28T04:16:13;-0.80;26.00
2967;DHT22;1493;51.496;7.210;2023-02-28T04:18:40;-0.80;1.00
2967;DHT22;1493;51.496;7.210;2023-02-28T04:21:08;-0.80;1.00
2967;DHT22;1493;51.496;7.210;2023-02-28T04:23:37;-0.80;1.00
2967;DHT22;1493;51.496;7.210;2023-02-28T04:26:04;-0.90;1.00
2967;DHT22;1493;51.496;7.210;2023-02-28T04:28:31;-0.90;46.40
2967;DHT22;1493;51.496;7.210;2023-02-28T04:30:59;-0.90;83.90
2967;DHT22;1493;51.496;7.210;2023-02-28T04:33:26;-0.90;99.90
2967;DHT22;1493;51.496;7.210;2023-02-28T04:36:00;-0.90;99.90
2967;DHT22;1493;51.496;7.210;2023-02-28T04:38:28;-0.90;99.90
2967;DHT22;1493;51.496;7.210;2023-02-28T04:40:58;-0.90;99.90
2967;DHT22;1493;51.496;7.210;2023-02-28T04:43:26;-0.90;99.90
2967;DHT22;1493;51.496;7.210;2023-02-28T04:45:53;-1.00;99.90
2967;DHT22;1493;51.496;7.210;2023-02-28T04:48:22;-1.00;57.30
2967;DHT22;1493;51.496;7.210;2023-02-28T04:50:49;-0.90;81.40
2967;DHT22;1493;51.496;7.210;2023-02-28T04:53:16;-0.90;13.20
2967;DHT22;1493;51.496;7.210;2023-02-28T04:55:43;-0.90;1.00
2967;DHT22;1493;51.496;7.210;2023-02-28T04:58:11;-1.00;1.00
2967;DHT22;1493;51.496;7.210;2023-02-28T05:00:38;-1.00;1.00
2967;DHT22;1493;51.496;7.210;2023-02-28T05:03:04;-1.00;12.00
2967;DHT22;1493;51.496;7.210;2023-02-28T05:05:31;-1.00;1.00
2967;DHT22;1493;51.496;7.210;2023-02-28T05:07:58;-1.00;1.00
2967;DHT22;1493;51.496;7.210;2023-02-28T05:10:25;-1.00;15.90
2967;DHT22;1493;51.496;7.210;2023-02-28T05:12:52;-1.10;54.30
2967;DHT22;1493;51.496;7.210;2023-02-28T05:15:20;-1.00;99.90
2967;DHT22;1493;51.496;7.210;2023-02-28T05:17:47;-1.10;99.90
2967;DHT22;1493;51.496;7.210;2023-02-28T05:20:14;-1.10;99.90
2967;DHT22;1493;51.496;7.210;2023-02-28T05:22:42;-1.10;99.90
2967;DHT22;1493;51.496;7.210;2023-02-28T05:25:11;-1.10;99.90
2967;DHT22;1493;51.496;7.210;2023-02-28T05:27:38;-1.10;99.90
2967;DHT22;1493;51.496;7.210;2023-02-28T05:30:07;-1.10;99.90
2967;DHT22;1493;51.496;7.210;2023-02-28T05:32:37;-1.10;98.50
2967;DHT22;1493;51.496;7.210;2023-02-28T05:35:04;-1.10;1.00
2967;DHT22;1493;51.496;7.210;2023-02-28T05:37:31;-1.10;59.10
2967;DHT22;1493;51.496;7.210;2023-02-28T05:39:58;-1.10;21.70
2967;DHT22;1493;51.496;7.210;2023-02-28T05:42:25;-1.10;48.60
2967;DHT22;1493;51.496;7.210;2023-02-28T05:44:52;-1.20;1.00
2967;DHT22;1493;51.496;7.210;2023-02-28T05:47:18;-1.20;54.30
2967;DHT22;1493;51.496;7.210;2023-02-28T05:49:47;-1.20;1.00
2967;DHT22;1493;51.496;7.210;2023-02-28T05:52:14;-1.20;1.00
2967;DHT22;1493;51.496;7.210;2023-02-28T05:54:41;-1.20;1.00
2967;DHT22;1493;51.496;7.210;2023-02-28T05:57:07;-1.20;1.00
2967;DHT22;1493;51.496;7.210;2023-02-28T05:59:34;-1.20;1.00
2967;DHT22;1493;51.496;7.210;2023-02-28T06:02:05;-1.20;1.00
2967;DHT22;1493;51.496;7.210;2023-02-28T06:04:32;-1.30;1.00
2967;DHT22;1493;51.496;7.210;2023-02-28T06:07:00;-1.20;1.00
2967;DHT22;1493;51.496;7.210;2023-02-28T06:09:27;-1.20;1.00
2967;DHT22;1493;51.496;7.210;2023-02-28T06:11:54;-1.20;1.00
2967;DHT22;1493;51.496;7.210;2023-02-28T06:14:21;-1.30;1.00
2967;DHT22;1493;51.496;7.210;2023-02-28T06:16:48;-1.30;1.00
2967;DHT22;1493;51.496;7.210;2023-02-28T06:19:15;-1.30;1.00
2967;DHT22;1493;51.496;7.210;2023-02-28T06:21:42;-1.30;1.00
2967;DHT22;1493;51.496;7.210;2023-02-28T06:24:10;-1.30;1.00
2967;DHT22;1493;51.496;7.210;2023-02-28T06:26:37;-1.30;1.00
2967;DHT22;1493;51.496;7.210;2023-02-28T06:29:04;-1.30;1.00
2967;DHT22;1493;51.496;7.210;2023-02-28T06:31:30;-1.30;1.00
2967;DHT22;1493;51.496;7.210;2023-02-28T06:33:57;-1.30;1.00
2967;DHT22;1493;51.496;7.210;2023-02-28T06:36:24;-1.30;1.00
2967;DHT22;1493;51.496;7.210;2023-02-28T06:38:51;-1.40;1.00
2967;DHT22;1493;51.496;7.210;2023-02-28T06:41:22;-1.30;1.00
2967;DHT22;1493;51.496;7.210;2023-02-28T06:43:49;-1.30;1.00
2967;DHT22;1493;51.496;7.210;2023-02-28T06:46:16;-1.30;1.00
2967;DHT22;1493;51.496;7.210;2023-02-28T06:48:43;-1.20;1.00
2967;DHT22;1493;51.496;7.210;2023-02-28T06:51:12;-1.20;1.00
2967;DHT22;1493;51.496;7.210;2023-02-28T06:53:40;-1.30;1.00
2967;DHT22;1493;51.496;7.210;2023-02-28T06:56:08;-1.30;1.00
2967;DHT22;1493;51.496;7.210;2023-02-28T06:58:36;-1.30;1.00
2967;DHT22;1493;51.496;7.210;2023-02-28T07:01:05;-1.20;20.00
2967;DHT22;1493;51.496;7.210;2023-02-28T07:03:32;-1.20;1.00
2967;DHT22;1493;51.496;7.210;2023-02-28T07:05:59;-1.10;1.00
2967;DHT22;1493;51.496;7.210;2023-02-28T07:08:26;-1.00;1.00
2967;DHT22;1493;51.496;7.210;2023-02-28T07:10:53;-0.90;1.00
2967;DHT22;1493;51.496;7.210;2023-02-28T07:13:21;-0.90;1.00
2967;DHT22;1493;51.496;7.210;2023-02-28T07:15:55;-0.90;1.00
2967;DHT22;1493;51.496;7.210;2023-02-28T07:18:22;-0.80;1.00
2967;DHT22;1493;51.496;7.210;2023-02-28T07:20:49;-0.70;99.90
2967;DHT22;1493;51.496;7.210;2023-02-28T07:23:15;-0.70;99.90
2967;DHT22;1493;51.496;7.210;2023-02-28T07:25:42;-0.60;99.90
2967;DHT22;1493;51.496;7.210;2023-02-28T07:28:11;-0.50;99.90
2967;DHT22;1493;51.496;7.210;2023-02-28T07:30:38;-0.40;99.90
2967;DHT22;1493;51.496;7.210;2023-02-28T07:33:06;-0.40;99.90
2967;DHT22;1493;51.496;7.210;2023-02-28T07:35:33;-0.40;75.60
2967;DHT22;1493;51.496;7.210;2023-02-28T07:38:00;-0.30;54.30
2967;DHT22;1493;51.496;7.210;2023-02-28T07:40:28;-0.20;35.60
2967;DHT22;1493;51.496;7.210;2023-02-28T07:42:55;-0.20;25.40
2967;DHT22;1493;51.496;7.210;2023-02-28T07:45:21;-0.10;16.60
2967;DHT22;1493;51.496;7.210;2023-02-28T07:47:48;0.00;10.90
2967;DHT22;1493;51.496;7.210;2023-02-28T07:50:16;0.00;12.70
2967;DHT22;1493;51.496;7.210;2023-02-28T07:52:43;0.10;22.70
2967;DHT22;1493;51.496;7.210;2023-02-28T07:55:10;0.10;7.10
2967;DHT22;1493;51.496;7.210;2023-02-28T07:57:37;0.10;5.90
2967;DHT22;1493;51.496;7.210;2023-02-28T08:00:05;0.20;1.00
2967;DHT22;1493;51.496;7.210;2023-02-28T08:02:35;0.30;1.00
2967;DHT22;1493;51.496;7.210;2023-02-28T08:05:02;0.30;1.00
2967;DHT22;1493;51.496;7.210;2023-02-28T08:07:30;0.50;1.00
2967;DHT22;1493;51.496;7.210;2023-02-28T08:09:57;0.70;1.00
2967;DHT22;1493;51.496;7.210;2023-02-28T08:12:25;1.00;1.00
2967;DHT22;1493;51.496;7.210;2023-02-28T08:14:52;1.20;1.00
2967;DHT22;1493;51.496;7.210;2023-02-28T08:17:19;1.50;1.00
2967;DHT22;1493;51.496;7.210;2023-02-28T08:19:45;1.60;1.00
2967;DHT22;1493;51.496;7.210;2023-02-28T08:22:13;1.70;1.00
2967;DHT22;1493;51.496;7.210;2023-02-28T08:24:42;1.60;1.00
2967;DHT22;1493;51.496;7.210;2023-02-28T08:27:11;1.60;1.00
2967;DHT22;1493;51.496;7.210;2023-02-28T08:29:39;1.50;1.00
2967;DHT22;1493;51.496;7.210;2023-02-28T08:32:07;1.40;1.00
2967;DHT22;1493;51.496;7.210;2023-02-28T08:34:34;1.50;1.00
2967;DHT22;1493;51.496;7.210;2023-02-28T08:37:01;1.70;1.00
2967;DHT22;1493;51.496;7.210;2023-02-28T08:39:28;1.80;1.00
2967;DHT22;1493;51.496;7.210;2023-02-28T08:41:56;2.10;1.00
2967;DHT22;1493;51.496;7.210;2023-02-28T08:44:23;2.20;1.00
2967;DHT22;1493;51.496;7.210;2023-02-28T08:46:50;2.20;1.00
2967;DHT22;1493;51.496;7.210;2023-02-28T08:49:17;2.30;1.00
2967;DHT22;1493;51.496;7.210;2023-02-28T08:51:44;2.40;1.00
2967;DHT22;1493;51.496;7.210;2023-02-28T08:54:11;2.60;1.00
2967;DHT22;1493;51.496;7.210;2023-02-28T08:56:38;2.90;1.00
2967;DHT22;1493;51.496;7.210;2023-02-28T08:59:09;3.30;1.00
2967;DHT22;1493;51.496;7.210;2023-02-28T09:01:36;3.50;1.00
2967;DHT22;1493;51.496;7.210;2023-02-28T09:04:02;3.50;99.90
2967;DHT22;1493;51.496;7.210;2023-02-28T09:06:31;3.60;99.90
2967;DHT22;1493;51.496;7.210;2023-02-28T09:08:59;3.90;99.90
2967;DHT22;1493;51.496;7.210;2023-02-28T09:11:27;4.20;99.90
2967;DHT22;1493;51.496;7.210;2023-02-28T09:13:54;5.20;99.90
2967;DHT22;1493;51.496;7.210;2023-02-28T09:16:23;6.00;99.90
2967;DHT22;1493;51.496;7.210;2023-02-28T09:18:50;5.90;99.90
2967;DHT22;1493;51.496;7.210;2023-02-28T09:21:18;6.40;99.90
2967;DHT22;1493;51.496;7.210;2023-02-28T09:23:47;7.00;99.90
2967;DHT22;1493;51.496;7.210;2023-02-28T09:26:15;7.40;99.90
2967;DHT22;1493;51.496;7.210;2023-02-28T09:28:42;7.70;99.90
2967;DHT22;1493;51.496;7.210;2023-02-28T09:31:15;7.90;99.90
2967;DHT22;1493;51.496;7.210;2023-02-28T09:33:47;7.70;99.90
2967;DHT22;1493;51.496;7.210;2023-02-28T09:36:14;7.40;99.90
2967;DHT22;1493;51.496;7.210;2023-02-28T09:38:41;8.10;99.90
2967;DHT22;1493;51.496;7.210;2023-02-28T09:41:13;8.40;99.90
2967;DHT22;1493;51.496;7.210;2023-02-28T09:43:44;8.80;99.90
2967;DHT22;1493;51.496;7.210;2023-02-28T09:46:21;9.30;99.90
2967;DHT22;1493;51.496;7.210;2023-02-28T09:48:54;9.80;99.90
2967;DHT22;1493;51.496;7.210;2023-02-28T09:51:40;10.00;99.90
2967;DHT22;1493;51.496;7.210;2023-02-28T09:54:14;10.40;99.90
2967;DHT22;1493;51.496;7.210;2023-02-28T09:56:45;11.10;99.90
2967;DHT22;1493;51.496;7.210;2023-02-28T09:59:23;12.30;99.90
2967;DHT22;1493;51.496;7.210;2023-02-28T10:01:58;12.50;99.90
2967;DHT22;1493;51.496;7.210;2023-02-28T10:04:40;12.80;99.90
2967;DHT22;1493;51.496;7.210;2023-02-28T10:07:20;11.80;99.90
2967;DHT22;1493;51.496;7.210;2023-02-28T10:09:52;12.40;99.90
2967;DHT22;1493;51.496;7.210;2023-02-28T10:12:20;11.90;99.90
2967;DHT22;1493;51.496;7.210;2023-02-28T10:14:50;11.30;99.90
2967;DHT22;1493;51.496;7.210;2023-02-28T10:17:20;10.70;99.90
2967;DHT22;1493;51.496;7.210;2023-02-28T10:19:57;10.80;99.90
2967;DHT22;1493;51.496;7.210;2023-02-28T10:22:29;10.30;99.90
2967;DHT22;1493;51.496;7.210;2023-02-28T10:24:58;10.00;99.90
2967;DHT22;1493;51.496;7.210;2023-02-28T10:27:30;9.00;99.90
2967;DHT22;1493;51.496;7.210;2023-02-28T10:29:58;8.80;99.90
2967;DHT22;1493;51.496;7.210;2023-02-28T10:32:27;9.90;99.90
2967;DHT22;1493;51.496;7.210;2023-02-28T10:34:59;10.30;99.90
2967;DHT22;1493;51.496;7.210;2023-02-28T10:37:26;9.60;99.90
2967;DHT22;1493;51.496;7.210;2023-02-28T10:39:54;9.30;99.90
2967;DHT22;1493;51.496;7.210;2023-02-28T10:42:29;9.50;99.90
2967;DHT22;1493;51.496;7.210;2023-02-28T10:45:10;9.70;99.90
2967;DHT22;1493;51.496;7.210;2023-02-28T10:47:49;11.00;99.90
2967;DHT22;1493;51.496;7.210;2023-02-28T10:50:39;13.40;99.90
2967;DHT22;1493;51.496;7.210;2023-02-28T10:53:25;14.90;99.90
2967;DHT22;1493;51.496;7.210;2023-02-28T10:56:00;15.90;99.90
2967;DHT22;1493;51.496;7.210;2023-02-28T10:58:29;15.80;99.90
2967;DHT22;1493;51.496;7.210;2023-02-28T11:00:57;16.70;99.90
2967;DHT22;1493;51.496;7.210;2023-02-28T11:03:30;17.10;99.90
2967;DHT22;1493;51.496;7.210;2023-02-28T11:05:59;17.00;99.90
2967;DHT22;1493;51.496;7.210;2023-02-28T11:08:30;16.90;99.90
2967;DHT22;1493;51.496;7.210;2023-02-28T11:10:59;16.60;99.90
2967;DHT22;1493;51.496;7.210;2023-02-28T11:13:29;16.70;99.90
2967;DHT22;1493;51.496;7.210;2023-02-28T11:16:02;16.30;99.90
2967;DHT22;1493;51.496;7.210;2023-02-28T11:18:30;18.50;99.90
2967;DHT22;1493;51.496;7.210;2023-02-28T11:21:02;18.60;99.90
2967;DHT22;1493;51.496;7.210;2023-02-28T11:23:31;18.80;99.90
2967;DHT22;1493;51.496;7.210;2023-02-28T11:26:02;17.80;99.90
2967;DHT22;1493;51.496;7.210;2023-02-28T11:28:32;17.80;99.90
2967;DHT22;1493;51.496;7.210;2023-02-28T11:31:15;17.90;99.90
2967;DHT22;1493;51.496;7.210;2023-02-28T11:33:48;18.10;99.90
2967;DHT22;1493;51.496;7.210;2023-02-28T11:36:19;18.30;99.90
2967;DHT22;1493;51.496;7.210;2023-02-28T11:38:47;18.60;99.90
2967;DHT22;1493;51.496;7.210;2023-02-28T11:41:30;19.00;99.90
2967;DHT22;1493;51.496;7.210;2023-02-28T11:44:23;18.60;99.90
2967;DHT22;1493;51.496;7.210;2023-02-28T11:46:57;19.20;99.90
2967;DHT22;1493;51.496;7.210;2023-02-28T11:49:36;19.20;99.90
2967;DHT22;1493;51.496;7.210;2023-02-28T11:52:24;19.30;99.90
2967;DHT22;1493;51.496;7.210;2023-02-28T11:55:03;19.70;99.90
2967;DHT22;1493;51.496;7.210;2023-02-28T11:57:38;19.40;99.90
2967;DHT22;1493;51.496;7.210;2023-02-28T12:00:25;19.60;99.90
2967;DHT22;1493;51.496;7.210;2023-02-28T12:03:03;19.00;99.90
2967;DHT22;1493;51.496;7.210;2023-02-28T12:05:41;18.00;99.90
2967;DHT22;1493;51.496;7.210;2023-02-28T12:08:24;18.20;99.90
2967;DHT22;1493;51.496;7.210;2023-02-28T12:11:03;18.70;99.90
2967;DHT22;1493;51.496;7.210;2023-02-28T12:13:41;19.20;99.90
2967;DHT22;1493;51.496;7.210;2023-02-28T12:16:49;19.20;99.90
2967;DHT22;1493;51.496;7.210;2023-02-28T12:19:20;18.10;99.90
2967;DHT22;1493;51.496;7.210;2023-02-28T12:22:05;19.30;99.90
2967;DHT22;1493;51.496;7.210;2023-02-28T12:27:36;19.50;99.90
2967;DHT22;1493;51.496;7.210;2023-02-28T12:30:06;19.60;99.90
2967;DHT22;1493;51.496;7.210;2023-02-28T12:32:42;19.30;99.90
2967;DHT22;1493;51.496;7.210;2023-02-28T12:35:13;19.60;99.90
2967;DHT22;1493;51.496;7.210;2023-02-28T12:37:44;20.30;99.90
2967;DHT22;1493;51.496;7.210;2023-02-28T12:40:19;20.60;99.90
2967;DHT22;1493;51.496;7.210;2023-02-28T12:42:50;19.70;99.90
2967;DHT22;1493;51.496;7.210;2023-02-28T12:45:20;20.10;99.90
2967;DHT22;1493;51.496;7.210;2023-02-28T12:47:51;19.70;99.90
2967;DHT22;1493;51.496;7.210;2023-02-28T12:50:19;19.90;99.90
2967;DHT22;1493;51.496;7.210;2023-02-28T12:52:53;20.20;99.90
2967;DHT22;1493;51.496;7.210;2023-02-28T12:55:27;20.00;99.90
2967;DHT22;1493;51.496;7.210;2023-02-28T12:58:05;19.90;99.90
2967;DHT22;1493;51.496;7.210;2023-02-28T13:00:36;20.00;99.90
2967;DHT22;1493;51.496;7.210;2023-02-28T13:03:17;20.50;99.90
2967;DHT22;1493;51.496;7.210;2023-02-28T13:06:09;20.90;99.90
2967;DHT22;1493;51.496;7.210;2023-02-28T13:09:00;21.40;99.90
2967;DHT22;1493;51.496;7.210;2023-02-28T13:11:32;22.20;99.90
2967;DHT22;1493;51.496;7.210;2023-02-28T13:14:01;20.50;99.90
2967;DHT22;1493;51.496;7.210;2023-02-28T13:16:42;17.60;99.90
2967;DHT22;1493;51.496;7.210;2023-02-28T13:19:18;17.40;99.90
2967;DHT22;1493;51.496;7.210;2023-02-28T13:21:47;19.30;99.90
2967;DHT22;1493;51.496;7.210;2023-02-28T13:24:42;19.70;99.90
2967;DHT22;1493;51.496;7.210;2023-02-28T13:27:25;20.90;99.90
2967;DHT22;1493;51.496;7.210;2023-02-28T13:29:58;19.00;99.90
2967;DHT22;1493;51.496;7.210;2023-02-28T13:32:34;20.20;99.90
2967;DHT22;1493;51.496;7.210;2023-02-28T13:35:37;20.30;99.90
2967;DHT22;1493;51.496;7.210;2023-02-28T13:38:32;17.70;99.90
2967;DHT22;1493;51.496;7.210;2023-02-28T13:44:03;16.80;99.90
2967;DHT22;1493;51.496;7.210;2023-02-28T13:46:31;18.10;99.90
2967;DHT22;1493;51.496;7.210;2023-02-28T13:49:18;17.80;99.90
2967;DHT22;1493;51.496;7.210;2023-02-28T13:51:47;17.80;99.90
2967;DHT22;1493;51.496;7.210;2023-02-28T13:54:24;17.30;99.90
2967;DHT22;1493;51.496;7.210;2023-02-28T13:57:03;18.00;99.90
2967;DHT22;1493;51.496;7.210;2023-02-28T13:59:36;19.00;99.90
2967;DHT22;1493;51.496;7.210;2023-02-28T14:02:37;18.40;99.90
2967;DHT22;1493;51.496;7.210;2023-02-28T14:05:14;19.10;99.90
2967;DHT22;1493;51.496;7.210;2023-02-28T14:07:45;20.10;99.90
2967;DHT22;1493;51.496;7.210;2023-02-28T14:10:23;19.30;99.90
2967;DHT22;1493;51.496;7.210;2023-02-28T14:12:56;18.30;99.90
2967;DHT22;1493;51.496;7.210;2023-02-28T14:18:31;17.80;99.90
2967;DHT22;1493;51.496;7.210;2023-02-28T14:21:02;18.90;99.90
2967;DHT22;1493;51.496;7.210;2023-02-28T14:27:08;17.10;99.90
2967;DHT22;1493;51.496;7.210;2023-02-28T14:29:59;16.50;99.90
2967;DHT22;1493;51.496;7.210;2023-02-28T14:32:37;15.30;99.90
2967;DHT22;1493;51.496;7.210;2023-02-28T14:35:20;13.90;99.90
2967;DHT22;1493;51.496;7.210;2023-02-28T14:37:49;12.80;99.90
2967;DHT22;1493;51.496;7.210;2023-02-28T14:40:19;11.80;99.90
2967;DHT22;1493;51.496;7.210;2023-02-28T14:42:54;11.00;99.90
2967;DHT22;1493;51.496;7.210;2023-02-28T14:45:22;10.30;99.90
2967;DHT22;1493;51.496;7.210;2023-02-28T14:47:51;9.70;99.90
2967;DHT22;1493;51.496;7.210;2023-02-28T14:50:19;9.60;99.90
2967;DHT22;1493;51.496;7.210;2023-02-28T14:52:46;9.60;99.90
2967;DHT22;1493;51.496;7.210;2023-02-28T14:55:17;9.20;99.90
2967;DHT22;1493;51.496;7.210;2023-02-28T14:57:51;8.80;99.90
2967;DHT22;1493;51.496;7.210;2023-02-28T15:00:23;8.10;99.90
2967;DHT22;1493;51.496;7.210;2023-02-28T15:02:52;7.70;99.90
2967;DHT22;1493;51.496;7.210;2023-02-28T15:05:24;7.50;99.90
2967;DHT22;1493;51.496;7.210;2023-02-28T15:08:02;7.30;99.90
2967;DHT22;1493;51.496;7.210;2023-02-28T15:10:30;7.10;99.90
2967;DHT22;1493;51.496;7.210;2023-02-28T15:12:59;7.00;99.90
2967;DHT22;1493;51.496;7.210;2023-02-28T15:15:41;6.90;99.90
2967;DHT22;1493;51.496;7.210;2023-02-28T15:18:15;7.00;99.90
2967;DHT22;1493;51.496;7.210;2023-02-28T15:20:44;6.90;99.90
2967;DHT22;1493;51.496;7.210;2023-02-28T15:23:12;6.80;99.90
2967;DHT22;1493;51.496;7.210;2023-02-28T15:25:40;6.70;99.90
2967;DHT22;1493;51.496;7.210;2023-02-28T15:28:14;6.60;99.90
2967;DHT22;1493;51.496;7.210;2023-02-28T15:30:51;6.60;99.90
2967;DHT22;1493;51.496;7.210;2023-02-28T15:33:22;6.60;99.90
2967;DHT22;1493;51.496;7.210;2023-02-28T15:35:49;6.50;99.90
2967;DHT22;1493;51.496;7.210;2023-02-28T15:38:21;6.50;99.90
2967;DHT22;1493;51.496;7.210;2023-02-28T15:40:51;6.50;99.90
2967;DHT22;1493;51.496;7.210;2023-02-28T15:43:24;6.40;99.90
2967;DHT22;1493;51.496;7.210;2023-02-28T15:45:53;6.30;99.90
2967;DHT22;1493;51.496;7.210;2023-02-28T15:48:24;6.20;99.90
2967;DHT22;1493;51.496;7.210;2023-02-28T15:50:53;6.20;99.90
2967;DHT22;1493;51.496;7.210;2023-02-28T15:53:23;6.10;99.90
2967;DHT22;1493;51.496;7.210;2023-02-28T15:55:55;6.00;99.90
2967;DHT22;1493;51.496;7.210;2023-02-28T15:58:24;6.00;99.90
2967;DHT22;1493;51.496;7.210;2023-02-28T16:01:17;5.90;99.90
2967;DHT22;1493;51.496;7.210;2023-02-28T16:03:48;5.80;99.90
2967;DHT22;1493;51.496;7.210;2023-02-28T16:06:33;5.70;99.90
2967;DHT22;1493;51.496;7.210;2023-02-28T16:09:01;5.70;99.90
2967;DHT22;1493;51.496;7.210;2023-02-28T16:11:28;5.70;99.90
2967;DHT22;1493;51.496;7.210;2023-02-28T16:13:56;5.70;99.90
2967;DHT22;1493;51.496;7.210;2023-02-28T16:16:25;5.60;99.90
2967;DHT22;1493;51.496;7.210;2023-02-28T16:18:53;5.60;99.90
2967;DHT22;1493;51.496;7.210;2023-02-28T16:21:21;5.50;99.90
2967;DHT22;1493;51.496;7.210;2023-02-28T16:23:48;5.50;99.90
2967;DHT22;1493;51.496;7.210;2023-02-28T16:26:19;5.50;99.90
2967;DHT22;1493;51.496;7.210;2023-02-28T16:28:47;5.40;99.90
2967;DHT22;1493;51.496;7.210;2023-02-28T16:31:14;5.40;99.90
2967;DHT22;1493;51.496;7.210;2023-02-28T16:33:42;5.30;99.90
2967;DHT22;1493;51.496;7.210;2023-02-28T16:36:13;5.20;99.90
2967;DHT22;1493;51.496;7.210;2023-02-28T16:38:41;5.20;99.90
2967;DHT22;1493;51.496;7.210;2023-02-28T16:41:12;5.20;99.90
2967;DHT22;1493;51.496;7.210;2023-02-28T16:43:43;5.20;99.90
2967;DHT22;1493;51.496;7.210;2023-02-28T16:46:11;5.10;99.90
2967;DHT22;1493;51.496;7.210;2023-02-28T16:48:38;5.10;99.90
2967;DHT22;1493;51.496;7.210;2023-02-28T16:51:06;5.10;99.90
2967;DHT22;1493;51.496;7.210;2023-02-28T16:53:34;5.00;99.90
2967;DHT22;1493;51.496;7.210;2023-02-28T16:56:01;4.90;99.90
2967;DHT22;1493;51.496;7.210;2023-02-28T16:58:28;4.90;99.90